Time;durP1;ratioP1;P1;durP2;ratioP2;P2;SDS_P1;SDS_P2;PMS_P1;PMS_P2;Temp;Humidity;BMP_temperature;BMP_pressure;BME280_temperature;BME280_humidity;BME280_pressure;Samples;Min_cycle;Max_cycle;Signal;HPM_P1;HPM_P2
2022/08/27 00:01:57;;;;;;;14.25;5.60;;;;;;;21.12;51.48;94555.28;5011120;28;20257;-64
2022/08/27 00:04:22;;;;;;;9.30;4.88;;;;;;;20.75;52.34;94558.06;5002829;28;20233;-65
2022/08/27 00:06:48;;;;;;;11.32;4.88;;;;;;;20.77;51.80;94557.81;5010181;28;20218;-69
2022/08/27 00:09:13;;;;;;;10.27;4.40;;;;;;;20.78;51.69;94552.25;5010439;28;20207;-70
2022/08/27 00:11:38;;;;;;;11.50;4.68;;;;;;;20.81;51.27;94542.97;5006450;28;20232;-69
2022/08/27 00:14:04;;;;;;;7.15;4.50;;;;;;;20.86;50.96;94548.47;5012868;28;20373;-69
2022/08/27 00:16:29;;;;;;;8.27;4.55;;;;;;;20.82;51.12;94541.94;5011896;28;20235;-69
2022/08/27 00:18:55;;;;;;;9.35;4.57;;;;;;;20.83;51.08;94546.25;5006992;28;20230;-70
2022/08/27 00:21:21;;;;;;;8.15;4.50;;;;;;;20.81;51.04;94548.31;5009925;28;20311;-70
2022/08/27 00:23:47;;;;;;;11.25;4.32;;;;;;;20.90;50.58;94546.94;5024726;28;20387;-69
2022/08/27 00:26:16;;;;;;;9.07;4.43;;;;;;;20.85;50.61;94546.81;5007915;28;20223;-71
2022/08/27 00:28:43;;;;;;;9.73;4.72;;;;;;;20.68;50.82;94544.78;5010800;28;20561;-69
2022/08/27 00:31:09;;;;;;;12.70;4.55;;;;;;;20.75;51.11;94539.34;5019455;28;20222;-69
2022/08/27 00:33:35;;;;;;;7.57;4.38;;;;;;;20.91;51.73;94537.91;5010903;28;20599;-71
2022/08/27 00:36:02;;;;;;;11.68;5.03;;;;;;;20.73;52.70;94536.09;5007791;28;20207;-70
2022/08/27 00:38:28;;;;;;;9.10;4.90;;;;;;;20.43;53.71;94534.19;5015017;28;20299;-70
2022/08/27 00:40:54;;;;;;;9.75;5.30;;;;;;;20.24;54.68;94533.38;5011592;28;20230;-70
2022/08/27 00:43:45;;;;;;;12.55;5.32;;;;;;;20.41;54.12;94528.25;4995899;28;20223;-70
2022/08/27 00:46:18;;;;;;;8.32;4.88;;;;;;;20.37;54.39;94531.59;5011123;28;20226;-70
2022/08/27 00:48:44;;;;;;;9.18;5.35;;;;;;;20.49;54.87;94535.16;5023419;28;20214;-69
2022/08/27 00:51:10;;;;;;;10.27;4.72;;;;;;;20.62;53.67;94536.88;4996664;28;20214;-69
2022/08/27 00:53:36;;;;;;;10.70;5.20;;;;;;;20.46;54.40;94541.75;5014041;28;20223;-70
2022/08/27 00:56:08;;;;;;;10.18;5.47;;;;;;;20.51;55.04;94537.59;5009014;28;20222;-70
2022/08/27 00:58:42;;;;;;;11.13;5.05;;;;;;;20.59;54.67;94537.31;5014964;28;20219;-69
2022/08/27 01:01:12;;;;;;;11.10;5.35;;;;;;;20.56;55.12;94535.91;4997605;28;20254;-69
2022/08/27 01:03:39;;;;;;;12.15;5.75;;;;;;;20.27;55.80;94538.28;5018824;28;20214;-69
2022/08/27 01:06:08;;;;;;;9.07;5.60;;;;;;;20.19;56.38;94535.09;5002958;28;20203;-69
2022/08/27 01:08:38;;;;;;;8.77;4.85;;;;;;;20.19;56.42;94540.44;4999956;28;20220;-69
2022/08/27 01:11:04;;;;;;;12.90;5.05;;;;;;;19.93;57.08;94537.00;5005116;28;20365;-70
2022/08/27 01:13:31;;;;;;;11.02;4.78;;;;;;;20.00;56.93;94531.63;5010367;28;20317;-70
2022/08/27 01:15:58;;;;;;;9.98;5.30;;;;;;;20.05;56.78;94534.44;5012512;28;20250;-69
2022/08/27 01:18:33;;;;;;;11.07;5.40;;;;;;;20.13;56.81;94533.31;5011247;28;20206;-69
2022/08/27 01:21:18;;;;;;;5.90;4.88;;;;;;;20.07;56.94;94532.34;4996989;28;20202;-69
2022/08/27 01:24:29;;;;;;;11.40;4.88;;;;;;;19.96;57.55;94538.41;4999478;28;20219;-69
2022/08/27 01:26:56;;;;;;;13.55;5.65;;;;;;;19.68;58.56;94533.59;5003187;28;20986;-69
2022/08/27 01:29:22;;;;;;;11.35;5.72;;;;;;;19.79;58.42;94540.84;5006548;28;20282;-70
2022/08/27 01:31:47;;;;;;;7.80;4.90;;;;;;;19.91;57.96;94539.06;5010882;28;20234;-69
2022/08/27 01:34:13;;;;;;;8.65;5.07;;;;;;;19.86;58.18;94540.78;5009435;28;20219;-69
2022/08/27 01:36:39;;;;;;;12.60;5.25;;;;;;;19.81;58.33;94544.13;5010111;28;20213;-69
2022/08/27 01:39:04;;;;;;;8.73;5.57;;;;;;;19.75;58.42;94540.50;5012230;28;20671;-69
2022/08/27 01:41:30;;;;;;;8.70;5.72;;;;;;;19.81;58.15;94539.59;5010749;28;20254;-69
2022/08/27 01:43:55;;;;;;;9.13;5.05;;;;;;;19.81;58.31;94541.47;4997375;28;20222;-69
2022/08/27 01:46:23;;;;;;;11.10;6.20;;;;;;;19.95;57.83;94540.28;5009959;28;20318;-69
2022/08/27 01:48:48;;;;;;;18.00;5.80;;;;;;;19.89;57.83;94543.00;5006668;28;20250;-69
2022/08/27 01:51:14;;;;;;;11.77;5.25;;;;;;;19.80;57.83;94539.81;5008728;28;20215;-70
2022/08/27 01:53:40;;;;;;;10.23;5.28;;;;;;;19.79;58.20;94540.84;5003069;28;20223;-69
2022/08/27 01:56:05;;;;;;;11.40;5.50;;;;;;;19.73;58.18;94547.91;5014164;28;20222;-70
2022/08/27 01:58:32;;;;;;;12.27;5.65;;;;;;;19.59;58.75;94538.34;5009268;28;20227;-70
2022/08/27 02:01:04;;;;;;;8.55;5.10;;;;;;;19.49;59.19;94552.19;5012584;28;20228;-69
2022/08/27 02:03:30;;;;;;;11.00;5.28;;;;;;;19.53;58.71;94542.69;5003057;28;20200;-69
2022/08/27 02:05:56;;;;;;;9.48;5.03;;;;;;;19.55;58.83;94534.50;5004885;28;20330;-69
2022/08/27 02:08:22;;;;;;;8.02;5.45;;;;;;;19.58;58.72;94534.84;5015375;28;20232;-69
2022/08/27 02:10:49;;;;;;;12.07;5.38;;;;;;;19.23;59.91;94542.53;5015371;28;20244;-69
2022/08/27 02:13:15;;;;;;;8.50;5.35;;;;;;;19.38;58.88;94548.38;5022843;28;20238;-69
2022/08/27 02:15:41;;;;;;;10.82;5.63;;;;;;;19.25;59.14;94545.81;5016193;28;20229;-69
2022/08/27 02:18:08;;;;;;;7.70;5.13;;;;;;;19.38;58.71;94548.38;5008726;28;20285;-70
2022/08/27 02:20:34;;;;;;;9.30;4.97;;;;;;;18.78;60.11;94550.63;4999183;28;20302;-69
2022/08/27 02:22:59;;;;;;;12.50;5.43;;;;;;;19.21;58.52;94547.25;4997192;28;20319;-70
2022/08/27 02:25:27;;;;;;;8.35;5.22;;;;;;;19.37;57.73;94552.06;5017361;28;20282;-70
2022/08/27 02:27:54;;;;;;;12.18;5.13;;;;;;;19.42;57.58;94550.59;5003683;28;20273;-69
2022/08/27 02:30:23;;;;;;;8.52;4.75;;;;;;;19.54;56.90;94554.16;5010790;28;20320;-70
2022/08/27 02:32:51;;;;;;;10.93;5.20;;;;;;;19.48;56.78;94563.06;5009199;28;20330;-69
2022/08/27 02:35:22;;;;;;;11.70;5.60;;;;;;;19.30;57.48;94559.31;5003567;28;20617;-69
2022/08/27 02:37:48;;;;;;;8.07;5.00;;;;;;;19.28;57.50;94561.38;5009507;28;20217;-69
2022/08/27 02:40:16;;;;;;;7.85;4.97;;;;;;;19.23;57.07;94565.72;5004053;28;20226;-68
2022/08/27 02:42:45;;;;;;;12.25;5.30;;;;;;;19.26;57.03;94570.59;5011227;28;20230;-69
2022/08/27 02:45:13;;;;;;;9.82;5.00;;;;;;;19.24;57.46;94570.00;5008252;28;20247;-70
2022/08/27 02:47:38;;;;;;;11.40;5.15;;;;;;;19.23;57.36;94561.19;5009344;28;20213;-69
2022/08/27 02:50:04;;;;;;;12.90;6.10;;;;;;;19.30;57.36;94561.97;5011637;28;20226;-69
2022/08/27 02:52:30;;;;;;;10.48;5.35;;;;;;;19.10;58.20;94563.94;4997699;28;20305;-70
2022/08/27 02:54:57;;;;;;;10.00;5.40;;;;;;;19.06;58.24;94560.06;5010663;28;20230;-69
2022/08/27 02:57:22;;;;;;;10.23;5.95;;;;;;;19.11;58.35;94569.09;5012481;28;20226;-69
2022/08/27 02:59:52;;;;;;;12.55;6.03;;;;;;;19.23;57.74;94569.19;5015931;28;20206;-69
2022/08/27 03:02:19;;;;;;;12.07;5.80;;;;;;;19.25;57.42;94567.13;5010200;28;20223;-69
2022/08/27 03:04:45;;;;;;;9.60;5.53;;;;;;;19.04;58.14;94570.97;5005574;28;20223;-69
2022/08/27 03:07:11;;;;;;;7.93;4.60;;;;;;;18.89;59.17;94579.25;5009531;28;20273;-69
2022/08/27 03:09:37;;;;;;;9.85;5.50;;;;;;;18.88;59.26;94574.94;5010114;28;20223;-70
2022/08/27 03:12:03;;;;;;;7.68;5.20;;;;;;;18.89;59.34;94583.75;5010611;28;20194;-70
2022/08/27 03:14:30;;;;;;;12.02;5.70;;;;;;;18.98;59.13;94576.31;5001250;28;20235;-70
2022/08/27 03:18:16;;;;;;;13.38;5.28;;;;;;;19.00;59.13;94584.91;5009892;28;20238;-69
2022/08/27 03:19:41;;;;;;;12.00;5.47;;;;;;;18.86;59.65;94587.66;5006003;28;20230;-70
2022/08/27 03:22:06;;;;;;;7.10;5.32;;;;;;;18.76;59.79;94575.84;5009482;28;20215;-70
2022/08/27 03:24:33;;;;;;;8.82;5.30;;;;;;;18.87;59.66;94578.66;5012461;28;20290;-69
2022/08/27 03:26:58;;;;;;;9.88;5.63;;;;;;;18.89;59.61;94584.56;5007239;28;20256;-69
2022/08/27 03:29:24;;;;;;;11.57;5.78;;;;;;;18.89;59.67;94591.75;4997334;28;20302;-69
2022/08/27 03:31:49;;;;;;;10.57;5.20;;;;;;;18.78;59.97;94593.25;5008938;28;20242;-70
2022/08/27 03:34:14;;;;;;;13.25;6.07;;;;;;;18.72;59.91;94589.56;5009853;28;20899;-70
2022/08/27 03:36:40;;;;;;;24.75;7.93;;;;;;;18.79;59.87;94597.56;5003675;28;20280;-69
2022/08/27 03:39:05;;;;;;;20.90;7.72;;;;;;;18.70;60.04;94598.78;4998344;28;20196;-69
2022/08/27 03:41:31;;;;;;;18.48;7.68;;;;;;;18.65;59.92;94593.28;4998118;28;20210;-69
2022/08/27 03:43:56;;;;;;;19.45;7.07;;;;;;;18.57;60.25;94598.84;5013848;28;20225;-69
2022/08/27 03:46:21;;;;;;;12.77;6.68;;;;;;;18.59;60.45;94604.78;5011978;28;20235;-69
2022/08/27 03:48:47;;;;;;;12.20;6.10;;;;;;;18.59;60.18;94596.78;5013814;28;20229;-70
2022/08/27 03:51:14;;;;;;;12.45;6.03;;;;;;;18.64;60.16;94596.97;4996771;28;20226;-70
2022/08/27 03:53:41;;;;;;;13.13;6.28;;;;;;;18.60;60.35;94595.75;5010254;28;20238;-70
2022/08/27 03:56:07;;;;;;;14.23;6.03;;;;;;;18.55;60.32;94603.56;5006911;28;20246;-70
2022/08/27 03:58:35;;;;;;;10.75;5.75;;;;;;;18.46;61.03;94601.13;5012889;28;20739;-70
2022/08/27 04:01:01;;;;;;;10.75;5.82;;;;;;;18.53;60.85;94609.09;5006498;28;20229;-69
2022/08/27 04:03:27;;;;;;;12.13;6.15;;;;;;;18.57;60.92;94614.81;5015133;28;20215;-69
2022/08/27 04:05:54;;;;;;;10.35;5.50;;;;;;;18.59;60.73;94607.44;5013063;28;20221;-69
2022/08/27 04:08:21;;;;;;;12.07;6.10;;;;;;;18.77;60.00;94612.13;5016439;28;20206;-69
2022/08/27 04:10:47;;;;;;;7.35;5.82;;;;;;;18.78;60.05;94613.75;5016099;28;20225;-69
2022/08/27 04:13:13;;;;;;;7.32;5.32;;;;;;;18.47;61.41;94615.25;5009504;28;20231;-69
2022/08/27 04:15:43;;;;;;;13.07;6.13;;;;;;;18.63;60.85;94619.28;5011847;28;20230;-69
2022/08/27 04:18:09;;;;;;;8.30;5.10;;;;;;;18.61;60.97;94621.38;5006828;28;20227;-69
2022/08/27 04:20:35;;;;;;;14.23;6.50;;;;;;;18.53;61.42;94619.75;5010555;28;20231;-69
2022/08/27 04:23:00;;;;;;;13.43;5.93;;;;;;;18.51;61.43;94621.81;5013715;28;20227;-69
2022/08/27 04:25:26;;;;;;;13.48;6.63;;;;;;;18.63;61.00;94627.28;5024185;28;20649;-69
2022/08/27 04:27:52;;;;;;;9.30;5.88;;;;;;;18.72;60.64;94616.19;5024141;28;20766;-69
2022/08/27 04:30:18;;;;;;;10.82;5.57;;;;;;;18.68;60.53;94622.13;5012899;28;20297;-67
2022/08/27 04:32:43;;;;;;;12.20;5.38;;;;;;;18.68;60.51;94619.47;5015285;28;20771;-67
2022/08/27 04:35:10;;;;;;;7.82;5.70;;;;;;;18.71;60.15;94619.03;5010965;28;20300;-67
2022/08/27 04:37:36;;;;;;;9.98;5.68;;;;;;;18.71;60.23;94619.88;5007489;28;20334;-67
2022/08/27 04:40:02;;;;;;;13.68;6.68;;;;;;;18.41;60.94;94619.56;5010172;28;20264;-67
2022/08/27 04:42:28;;;;;;;11.57;5.97;;;;;;;18.83;59.85;94619.25;5013100;28;20227;-67
2022/08/27 04:44:53;;;;;;;15.50;5.75;;;;;;;19.03;59.28;94616.47;5009251;28;20573;-68
2022/08/27 04:47:19;;;;;;;13.05;6.53;;;;;;;19.10;58.51;94617.25;5015268;28;20710;-67
2022/08/27 04:49:45;;;;;;;11.00;6.07;;;;;;;19.07;58.62;94617.69;5014061;28;20249;-69
2022/08/27 04:52:11;;;;;;;8.88;6.07;;;;;;;18.88;59.54;94630.91;5011394;28;20223;-65
2022/08/27 04:54:37;;;;;;;11.70;6.50;;;;;;;19.10;58.47;94631.38;5007509;28;20226;-65
2022/08/27 04:57:04;;;;;;;13.30;6.68;;;;;;;19.20;57.94;94633.59;5011816;28;20215;-65
2022/08/27 04:59:31;;;;;;;8.68;6.20;;;;;;;19.16;58.23;94632.38;4994918;28;20226;-65
2022/08/27 05:01:57;;;;;;;9.70;5.93;;;;;;;19.04;58.55;94637.59;5009185;28;20222;-65
2022/08/27 05:04:22;;;;;;;10.32;5.50;;;;;;;19.08;58.64;94635.28;5015266;28;20218;-65
2022/08/27 05:06:49;;;;;;;13.93;5.90;;;;;;;19.02;58.93;94625.50;5001643;28;20907;-65
2022/08/27 05:09:16;;;;;;;10.32;5.50;;;;;;;19.22;57.98;94633.38;5010381;28;20220;-65
2022/08/27 05:11:42;;;;;;;9.75;5.28;;;;;;;19.09;57.22;94637.75;5008476;28;20730;-65
2022/08/27 05:14:09;;;;;;;11.55;5.80;;;;;;;19.09;57.08;94642.28;5010108;28;20270;-64
2022/08/27 05:16:36;;;;;;;8.48;5.22;;;;;;;19.13;56.74;94641.63;5013267;28;20225;-64
2022/08/27 05:19:04;;;;;;;9.18;5.53;;;;;;;19.00;56.61;94638.22;5008087;28;20227;-63
2022/08/27 05:21:32;;;;;;;6.68;5.47;;;;;;;19.04;56.81;94639.44;5013556;28;20246;-63
2022/08/27 05:24:00;;;;;;;8.38;5.25;;;;;;;19.22;56.51;94641.38;5003780;28;20246;-64
2022/08/27 05:26:26;;;;;;;8.73;6.03;;;;;;;19.46;55.49;94631.78;5012306;28;20215;-63
2022/08/27 05:28:52;;;;;;;8.85;5.60;;;;;;;19.43;55.34;94637.53;5010134;28;20226;-64
2022/08/27 05:31:21;;;;;;;10.05;5.45;;;;;;;19.49;55.49;94647.38;5010536;28;20264;-64
2022/08/27 05:33:47;;;;;;;8.32;5.18;;;;;;;19.50;54.60;94638.31;5012693;28;20226;-63
2022/08/27 05:36:25;;;;;;;12.18;5.65;;;;;;;19.59;54.32;94639.69;5003946;28;20288;-64
2022/08/27 05:38:51;;;;;;;8.38;5.32;;;;;;;19.67;54.19;94639.44;5012520;28;20208;-64
2022/08/27 05:41:26;;;;;;;11.88;5.30;;;;;;;19.72;54.05;94644.13;5001640;28;20204;-64
2022/08/27 05:43:53;;;;;;;9.55;5.03;;;;;;;19.79;53.57;94643.03;5007954;28;20218;-64
2022/08/27 05:46:21;;;;;;;14.48;5.97;;;;;;;19.85;53.46;94645.88;4992173;28;20223;-64
2022/08/27 05:48:48;;;;;;;11.02;5.32;;;;;;;19.96;52.96;94653.97;5014218;28;20246;-64
2022/08/27 05:51:16;;;;;;;11.90;5.25;;;;;;;19.99;53.35;94642.88;5010161;28;20215;-64
2022/08/27 05:53:42;;;;;;;13.88;5.47;;;;;;;19.35;54.28;94646.63;5027075;28;20208;-64
2022/08/27 05:56:22;;;;;;;12.15;5.40;;;;;;;19.82;53.40;94649.78;5009680;28;20249;-64
2022/08/27 06:01:44;;;;;;;10.57;5.78;;;;;;;20.27;51.71;94645.06;4999381;28;20233;-64
2022/08/27 06:04:11;;;;;;;11.70;5.35;;;;;;;20.30;52.04;94646.47;5000876;28;20226;-64
2022/08/27 06:06:39;;;;;;;8.90;5.78;;;;;;;20.35;52.09;94645.84;5017229;28;20279;-64
2022/08/27 06:09:05;;;;;;;9.82;5.38;;;;;;;20.25;53.13;94647.13;5007808;28;20207;-65
2022/08/27 06:11:31;;;;;;;15.32;5.80;;;;;;;20.37;52.48;94636.56;5009346;28;20215;-64
2022/08/27 06:13:57;;;;;;;9.32;5.72;;;;;;;20.43;52.21;94654.38;5009292;28;20761;-64
2022/08/27 06:16:22;;;;;;;9.38;5.90;;;;;;;20.56;51.94;94647.28;5011971;28;20231;-64
2022/08/27 06:18:49;;;;;;;12.63;5.93;;;;;;;20.67;51.47;94659.91;5013638;28;20226;-65
2022/08/27 06:21:17;;;;;;;11.05;5.95;;;;;;;20.70;50.89;94648.75;5005549;28;20246;-64
2022/08/27 06:23:42;;;;;;;9.80;5.07;;;;;;;20.65;50.17;94653.94;5008922;28;20221;-63
2022/08/27 06:26:13;;;;;;;13.00;5.60;;;;;;;20.66;50.01;94661.75;5011087;28;20230;-63
2022/08/27 06:28:43;;;;;;;9.15;5.20;;;;;;;20.70;49.90;94657.59;4998202;28;20223;-63
2022/08/27 06:31:15;;;;;;;13.43;5.47;;;;;;;20.85;50.03;94657.22;5003473;28;20223;-65
2022/08/27 06:33:43;;;;;;;12.15;5.80;;;;;;;20.90;49.94;94664.53;5010515;28;20226;-65
2022/08/27 06:36:11;;;;;;;7.55;5.20;;;;;;;20.92;49.57;94662.47;5004401;28;20219;-65
2022/08/27 06:38:38;;;;;;;13.32;5.40;;;;;;;20.93;50.00;94658.78;5007549;28;20241;-65
2022/08/27 06:41:07;;;;;;;13.07;5.80;;;;;;;21.13;49.59;94656.63;4993517;28;20226;-65
2022/08/27 06:43:35;;;;;;;12.02;4.30;;;;;;;20.98;49.95;94661.56;5003996;28;20603;-65
2022/08/27 06:46:05;;;;;;;13.10;5.70;;;;;;;20.96;50.27;94661.00;5009602;28;20227;-65
2022/08/27 06:48:30;;;;;;;10.60;5.22;;;;;;;21.10;49.51;94654.41;5007402;28;20261;-64
2022/08/27 06:50:56;;;;;;;9.73;5.20;;;;;;;21.24;49.70;94657.72;5010985;28;20207;-65
2022/08/27 06:53:21;;;;;;;10.95;5.57;;;;;;;21.30;49.22;94650.66;5001107;28;20254;-65
2022/08/27 06:55:48;;;;;;;10.38;5.60;;;;;;;21.39;48.42;94649.34;5002613;28;20707;-65
2022/08/27 06:58:15;;;;;;;8.65;5.95;;;;;;;21.27;48.89;94645.75;4999884;28;20223;-63
2022/08/27 07:00:42;;;;;;;10.15;5.75;;;;;;;21.39;49.07;94657.34;5007164;28;20249;-64
2022/08/27 07:03:08;;;;;;;13.77;6.07;;;;;;;21.54;48.78;94654.25;5004412;28;20211;-63
2022/08/27 07:05:35;;;;;;;8.82;5.32;;;;;;;21.63;48.85;94662.78;5011877;28;20277;-63
2022/08/27 07:08:02;;;;;;;12.40;5.63;;;;;;;21.69;48.33;94660.00;5013040;28;20230;-64
2022/08/27 07:10:28;;;;;;;10.05;5.80;;;;;;;21.72;47.98;94651.50;5004626;28;20230;-64
2022/08/27 07:12:53;;;;;;;10.30;4.90;;;;;;;21.74;47.81;94645.94;5015187;28;20236;-64
2022/08/27 07:15:19;;;;;;;14.55;5.82;;;;;;;21.72;47.53;94646.16;5007851;28;20222;-64
2022/08/27 07:17:44;;;;;;;10.70;5.82;;;;;;;21.85;47.34;94650.47;5006811;28;20229;-64
2022/08/27 07:20:11;;;;;;;9.50;4.90;;;;;;;21.87;47.06;94645.72;5002809;28;20223;-64
2022/08/27 07:22:41;;;;;;;10.57;5.80;;;;;;;21.89;46.75;94643.63;5004991;28;20344;-65
2022/08/27 07:25:11;;;;;;;9.60;4.80;;;;;;;21.98;46.72;94646.78;5005582;28;20255;-64
2022/08/27 07:27:37;;;;;;;11.88;5.35;;;;;;;22.13;46.42;94648.97;4989771;28;20230;-65
2022/08/27 07:30:04;;;;;;;9.73;5.80;;;;;;;22.18;46.73;94649.09;5006563;28;20219;-64
2022/08/27 07:32:29;;;;;;;8.85;4.88;;;;;;;22.23;46.91;94659.97;4993444;28;20211;-64
2022/08/27 07:34:55;;;;;;;10.93;4.97;;;;;;;22.25;47.34;94652.53;5009557;28;20234;-64
2022/08/27 07:37:21;;;;;;;8.07;5.18;;;;;;;22.37;47.22;94656.03;5011209;28;20313;-64
2022/08/27 07:39:47;;;;;;;11.38;5.40;;;;;;;22.45;46.39;94658.34;5008595;28;20219;-64
2022/08/27 07:44:56;;;;;;;9.65;5.03;;;;;;;22.56;45.79;94656.69;4998675;28;20236;-65
2022/08/27 07:47:22;;;;;;;9.23;5.13;;;;;;;22.65;45.40;94665.19;5013572;28;20301;-65
2022/08/27 07:49:47;;;;;;;7.13;5.47;;;;;;;22.71;45.49;94653.53;5013091;28;20322;-64
2022/08/27 07:52:14;;;;;;;9.77;5.10;;;;;;;22.78;45.36;94658.75;5005485;28;20254;-64
2022/08/27 07:54:40;;;;;;;14.10;5.57;;;;;;;22.84;45.19;94663.97;4996874;28;20231;-65
2022/08/27 07:57:06;;;;;;;14.50;5.18;;;;;;;22.88;45.00;94659.78;5010316;28;20214;-65
2022/08/27 07:59:31;;;;;;;12.00;5.40;;;;;;;23.01;44.74;94668.63;5009266;28;20203;-64
2022/08/27 08:01:57;;;;;;;9.57;5.57;;;;;;;23.05;44.38;94667.94;5008596;28;20230;-65
2022/08/27 08:04:23;;;;;;;8.60;4.90;;;;;;;23.04;44.60;94662.78;5008728;28;20222;-64
2022/08/27 08:06:50;;;;;;;7.88;4.57;;;;;;;23.09;44.41;94657.53;5011693;28;20218;-64
2022/08/27 08:09:15;;;;;;;9.40;5.57;;;;;;;23.21;43.73;94666.34;5011575;28;20892;-63
2022/08/27 08:11:41;;;;;;;7.50;4.88;;;;;;;23.21;43.98;94660.19;5012257;28;20226;-64
2022/08/27 08:14:06;;;;;;;12.48;5.50;;;;;;;23.36;43.41;94660.44;5008911;28;20248;-64
2022/08/27 08:16:32;;;;;;;11.57;5.28;;;;;;;23.40;43.48;94658.13;4999230;28;20227;-64
2022/08/27 08:18:59;;;;;;;6.28;4.93;;;;;;;23.40;43.73;94656.25;5027842;28;20215;-64
2022/08/27 08:21:25;;;;;;;11.05;5.15;;;;;;;23.55;43.24;94653.84;5011856;28;20495;-64
2022/08/27 08:23:50;;;;;;;8.70;4.85;;;;;;;23.51;43.20;94649.19;4995768;28;20211;-64
2022/08/27 08:26:16;;;;;;;11.40;5.63;;;;;;;23.58;43.02;94646.38;4999053;28;20274;-64
2022/08/27 08:28:42;;;;;;;10.52;5.18;;;;;;;23.58;43.19;94651.75;5009470;28;20223;-64
2022/08/27 08:31:08;;;;;;;9.32;5.22;;;;;;;23.60;43.15;94644.25;5014068;28;20236;-64
2022/08/27 08:33:34;;;;;;;9.43;5.13;;;;;;;23.69;43.09;94643.63;5012695;28;20227;-64
2022/08/27 08:36:14;;;;;;;14.57;5.05;;;;;;;23.85;43.33;94636.66;5022556;28;20264;-64
2022/08/27 08:38:40;;;;;;;14.13;5.20;;;;;;;23.98;44.18;94641.72;5007824;28;21021;-64
2022/08/27 08:41:30;;;;;;;11.45;5.07;;;;;;;24.10;42.06;94635.44;5016669;28;20223;-64
2022/08/27 08:43:57;;;;;;;12.38;5.00;;;;;;;24.14;43.14;94642.75;5010317;28;20215;-68
2022/08/27 08:46:40;;;;;;;12.82;5.18;;;;;;;24.23;43.67;94645.84;5015301;28;20222;-65
2022/08/27 08:49:33;;;;;;;10.23;4.38;;;;;;;24.22;42.16;94646.91;5006566;28;20226;-65
2022/08/27 08:52:16;;;;;;;12.50;5.10;;;;;;;24.33;42.03;94642.50;5008818;28;20474;-64
2022/08/27 08:54:43;;;;;;;12.65;4.68;;;;;;;24.36;43.28;94637.44;5013711;28;20594;-64
2022/08/27 08:57:24;;;;;;;11.10;4.38;;;;;;;24.55;41.72;94638.00;5006052;28;20273;-64
2022/08/27 09:00:00;;;;;;;13.50;5.03;;;;;;;24.55;42.34;94638.00;5014278;28;20310;-65
2022/08/27 09:02:26;;;;;;;13.60;5.30;;;;;;;24.59;41.91;94635.63;5012283;28;20219;-65
2022/08/27 09:04:52;;;;;;;8.15;4.68;;;;;;;24.69;43.45;94634.94;5001057;28;20251;-65
2022/08/27 09:07:35;;;;;;;8.68;4.30;;;;;;;24.78;41.76;94638.81;5011478;28;20357;-65
2022/08/27 09:10:00;;;;;;;7.60;3.95;;;;;;;24.88;42.00;94636.25;5003015;28;20296;-65
2022/08/27 09:12:31;;;;;;;12.07;5.18;;;;;;;25.08;40.34;94639.22;5010335;28;20261;-65
2022/08/27 09:14:59;;;;;;;10.30;4.55;;;;;;;25.23;40.37;94638.63;5005943;28;20238;-65
2022/08/27 09:17:25;;;;;;;11.52;4.70;;;;;;;25.33;39.19;94634.38;5006938;28;20206;-65
2022/08/27 09:19:51;;;;;;;10.10;4.20;;;;;;;25.41;37.70;94634.75;5010007;28;20233;-64
2022/08/27 09:22:24;;;;;;;10.63;4.65;;;;;;;25.43;36.65;94624.53;5010968;28;20261;-65
2022/08/27 09:24:52;;;;;;;10.30;4.55;;;;;;;25.59;37.57;94630.09;5005398;28;20316;-65
2022/08/27 09:27:19;;;;;;;11.18;4.32;;;;;;;25.66;37.09;94623.44;5009991;28;20222;-64
2022/08/27 09:29:49;;;;;;;7.00;3.97;;;;;;;25.75;36.52;94619.19;5011978;28;20651;-65
2022/08/27 09:32:14;;;;;;;9.75;4.07;;;;;;;25.85;36.61;94620.34;5009192;28;20230;-65
2022/08/27 09:34:42;;;;;;;8.95;3.67;;;;;;;26.04;35.93;94627.00;5014784;28;20218;-64
2022/08/27 09:37:19;;;;;;;9.57;3.70;;;;;;;26.16;35.51;94624.09;5004340;28;20227;-64
2022/08/27 09:40:00;;;;;;;9.15;4.20;;;;;;;26.30;35.02;94628.00;5008103;28;20393;-64
2022/08/27 09:42:35;;;;;;;12.38;4.40;;;;;;;26.48;35.40;94625.94;5002451;28;20257;-64
2022/08/27 09:45:05;;;;;;;8.32;3.95;;;;;;;26.63;34.38;94622.56;4999852;28;20682;-64
2022/08/27 09:47:53;;;;;;;8.30;3.63;;;;;;;26.71;33.11;94619.38;5007125;28;20262;-64
2022/08/27 09:50:23;;;;;;;10.77;3.75;;;;;;;26.84;33.59;94622.38;5008177;28;20214;-64
2022/08/27 09:52:57;;;;;;;11.40;3.78;;;;;;;26.99;33.04;94624.31;5014943;28;20219;-65
2022/08/27 09:55:28;;;;;;;8.52;3.25;;;;;;;27.06;29.75;94624.09;5015579;28;20666;-64
2022/08/27 09:57:54;;;;;;;7.72;3.38;;;;;;;27.05;28.34;94614.34;5005601;28;20235;-65
2022/08/27 10:00:32;;;;;;;9.98;3.60;;;;;;;27.11;29.44;94617.91;5011068;28;20245;-64
2022/08/27 10:03:00;;;;;;;9.75;3.70;;;;;;;27.19;29.12;94617.41;5008399;28;20466;-64
2022/08/27 10:05:31;;;;;;;10.32;3.53;;;;;;;27.37;29.70;94616.09;5010898;28;20202;-65
2022/08/27 10:08:07;;;;;;;7.25;3.70;;;;;;;27.51;29.95;94608.31;5004566;28;20222;-65
2022/08/27 10:10:59;;;;;;;8.27;3.30;;;;;;;27.71;30.65;94606.44;5006639;28;20260;-64
2022/08/27 10:13:46;;;;;;;11.43;3.92;;;;;;;27.88;29.54;94611.63;5007719;28;20258;-64
2022/08/27 10:17:08;;;;;;;7.43;2.95;;;;;;;28.10;29.31;94602.44;5008614;28;20226;-64
2022/08/27 10:20:04;;;;;;;12.50;3.53;;;;;;;28.28;27.77;94606.44;4964672;28;20230;-64
2022/08/27 10:23:05;;;;;;;9.57;3.40;;;;;;;28.38;28.25;94603.72;4947109;28;20229;-65
2022/08/27 10:25:57;;;;;;;6.85;3.33;;;;;;;28.58;28.12;94605.63;4892680;29;20786;-64
2022/08/27 10:28:35;;;;;;;11.95;3.80;;;;;;;28.76;25.74;94604.19;4891543;29;20223;-64
2022/08/27 10:31:25;;;;;;;8.32;3.38;;;;;;;28.85;25.30;94607.97;4881255;29;20259;-65
2022/08/27 10:34:16;;;;;;;9.10;3.22;;;;;;;28.87;25.13;94605.78;4878923;29;20238;-66
2022/08/27 10:37:26;;;;;;;10.40;3.30;;;;;;;29.02;25.35;94597.59;4877458;29;20227;-63
2022/08/27 10:40:16;;;;;;;10.52;3.92;;;;;;;28.99;25.65;94608.97;4822964;29;20232;-64
2022/08/27 10:43:37;;;;;;;9.52;3.13;;;;;;;29.06;25.39;94606.00;4828171;29;20233;-64
2022/08/27 10:46:18;;;;;;;12.30;3.55;;;;;;;29.30;24.07;94606.16;4771606;29;20302;-65
2022/08/27 10:48:56;;;;;;;11.68;3.95;;;;;;;29.21;24.21;94603.22;4791061;29;20402;-65
2022/08/27 10:51:45;;;;;;;4.97;3.50;;;;;;;29.41;24.16;94607.72;4805668;29;20233;-64
2022/08/27 10:54:34;;;;;;;12.00;4.15;;;;;;;29.45;23.90;94614.19;4801394;29;20269;-65
2022/08/27 10:57:07;;;;;;;9.15;3.88;;;;;;;29.56;23.09;94604.09;4811351;29;20259;-65
2022/08/27 10:59:40;;;;;;;12.15;3.92;;;;;;;29.65;23.86;94601.66;4834723;29;20251;-65
2022/08/27 11:02:11;;;;;;;11.52;3.60;;;;;;;29.86;23.67;94607.72;4873597;29;20326;-63
2022/08/27 11:04:45;;;;;;;7.85;3.97;;;;;;;29.95;23.26;94610.63;4873775;29;20250;-64
2022/08/27 11:07:26;;;;;;;11.50;3.92;;;;;;;30.12;23.26;94600.16;4856648;29;20736;-63
2022/08/27 11:10:23;;;;;;;16.02;4.95;;;;;;;30.09;23.53;94595.31;4864227;29;20534;-64
2022/08/27 11:12:53;;;;;;;12.50;4.82;;;;;;;30.16;21.89;94597.72;4871018;29;20231;-63
2022/08/27 11:15:30;;;;;;;9.43;4.00;;;;;;;30.22;21.27;94594.66;4875281;29;20335;-64
2022/08/27 11:18:16;;;;;;;10.55;4.40;;;;;;;30.34;21.68;94594.31;4923261;29;20304;-64
2022/08/27 11:21:00;;;;;;;9.70;4.10;;;;;;;30.31;21.84;94590.28;4996201;28;20284;-64
2022/08/27 11:23:34;;;;;;;6.45;3.97;;;;;;;30.59;22.16;94587.81;4997383;28;20266;-64
2022/08/27 11:26:05;;;;;;;7.57;4.13;;;;;;;30.62;21.47;94592.66;4993214;28;20252;-64
2022/08/27 11:28:30;;;;;;;7.78;4.10;;;;;;;30.86;21.99;94589.19;5001274;28;20743;-64
2022/08/27 11:31:16;;;;;;;8.38;3.90;;;;;;;31.05;21.48;94589.22;5000332;28;20323;-64
2022/08/27 11:34:20;;;;;;;10.43;4.32;;;;;;;30.89;22.00;94580.44;5007231;28;20579;-64
2022/08/27 11:37:12;;;;;;;11.48;4.13;;;;;;;31.32;21.96;94572.28;4965879;28;20224;-64
2022/08/27 11:40:02;;;;;;;6.38;3.63;;;;;;;31.00;22.38;94573.78;4929244;29;20296;-64
2022/08/27 11:43:08;;;;;;;9.23;4.00;;;;;;;31.05;21.69;94576.44;4919049;29;20300;-64
2022/08/27 11:45:39;;;;;;;7.63;4.03;;;;;;;31.18;20.83;94577.63;4874544;29;20230;-63
2022/08/27 11:48:20;;;;;;;7.72;3.70;;;;;;;31.26;20.36;94568.03;4872654;29;20251;-64
2022/08/27 11:50:55;;;;;;;10.93;4.28;;;;;;;31.50;20.43;94576.94;4887903;29;20263;-65